createdAt,value
2017-11-03T00:00:16.352Z,936.34
2017-11-03T00:00:44.500Z,936.34
2017-11-03T00:01:12.651Z,936.33
2017-11-03T00:01:40.740Z,936.32
2017-11-03T00:02:08.788Z,936.32
2017-11-03T00:02:36.832Z,936.3
2017-11-03T00:03:04.967Z,936.29
2017-11-03T00:03:32.992Z,936.32
2017-11-03T00:04:00.977Z,936.31
2017-11-03T00:04:28.963Z,936.32
2017-11-03T00:04:57.127Z,936.27
2017-11-03T00:05:26.120Z,936.32
2017-11-03T00:05:54.311Z,936.31
2017-11-03T00:06:22.244Z,936.3
2017-11-03T00:06:50.194Z,936.28
2017-11-03T00:07:18.265Z,936.31
2017-11-03T00:07:46.200Z,936.28
2017-11-03T00:08:14.354Z,936.29
2017-11-03T00:08:42.330Z,936.23
2017-11-03T00:09:10.402Z,936.25
2017-11-03T00:09:38.377Z,936.26
2017-11-03T00:10:06.222Z,936.26
2017-11-03T00:10:34.255Z,936.26
2017-11-03T00:11:02.204Z,936.3
2017-11-03T00:11:30.147Z,936.3
2017-11-03T00:11:58.178Z,936.29
2017-11-03T00:12:26.137Z,936.3
2017-11-03T00:12:54.291Z,936.27
2017-11-03T00:13:22.236Z,936.31
2017-11-03T00:13:50.184Z,936.3
2017-11-03T00:14:18.252Z,936.31
2017-11-03T00:14:46.387Z,936.3
2017-11-03T00:15:14.333Z,936.27
2017-11-03T00:15:42.296Z,936.3
2017-11-03T00:16:10.318Z,936.29
2017-11-03T00:16:38.370Z,936.33
2017-11-03T00:17:06.428Z,936.33
2017-11-03T00:17:34.367Z,936.29
2017-11-03T00:18:02.315Z,936.28
2017-11-03T00:18:30.337Z,936.28
2017-11-03T00:18:58.494Z,936.24
2017-11-03T00:19:26.324Z,936.25
2017-11-03T00:19:54.369Z,936.27
2017-11-03T00:20:22.488Z,936.31
2017-11-03T00:20:50.631Z,936.31
2017-11-03T00:21:18.795Z,936.26
2017-11-03T00:21:46.883Z,936.33
2017-11-03T00:22:15.011Z,936.32
2017-11-03T00:22:43.158Z,936.29
2017-11-03T00:23:11.271Z,936.3
2017-11-03T00:23:39.525Z,936.34
2017-11-03T00:24:07.640Z,936.36
2017-11-03T00:24:35.792Z,936.36
2017-11-03T00:25:03.828Z,936.33
2017-11-03T00:25:31.972Z,936.4
2017-11-03T00:25:59.995Z,936.38
2017-11-03T00:26:27.940Z,936.37
2017-11-03T00:26:56.035Z,936.38
2017-11-03T00:27:24.141Z,936.39
2017-11-03T00:27:52.301Z,936.37
2017-11-03T00:28:20.260Z,936.39
2017-11-03T00:28:48.442Z,936.46
2017-11-03T00:29:16.644Z,936.42
2017-11-03T00:29:44.836Z,936.39
2017-11-03T00:30:12.993Z,936.39
2017-11-03T00:30:40.872Z,936.36
2017-11-03T00:31:09.047Z,936.4
2017-11-03T00:31:37.114Z,936.38
2017-11-03T00:32:04.952Z,936.4
2017-11-03T00:32:32.903Z,936.43
2017-11-03T00:33:00.964Z,936.38
2017-11-03T00:33:29.119Z,936.4
2017-11-03T00:33:57.165Z,936.41
2017-11-03T00:34:25.109Z,936.41
2017-11-03T00:34:53.250Z,936.42
2017-11-03T00:35:21.906Z,936.46
2017-11-03T00:35:50.558Z,936.41
2017-11-03T00:36:18.750Z,936.39
2017-11-03T00:36:46.935Z,936.42
2017-11-03T00:37:14.929Z,936.38
2017-11-03T00:37:43.101Z,936.4
2017-11-03T00:38:11.249Z,936.39
2017-11-03T00:38:39.068Z,936.4
2017-11-03T00:39:07.107Z,936.37
2017-11-03T00:39:35.137Z,936.39
2017-11-03T00:40:03.206Z,936.39
2017-11-03T00:40:31.133Z,936.41
2017-11-03T00:40:59.593Z,936.4
2017-11-03T00:41:27.535Z,936.4
2017-11-03T00:41:55.804Z,936.39
2017-11-03T00:42:23.950Z,936.41
2017-11-03T00:42:52.525Z,936.45
2017-11-03T00:43:21.084Z,936.49
2017-11-03T00:43:49.541Z,936.47
2017-11-03T00:44:17.887Z,936.47
2017-11-03T00:44:46.317Z,936.46
2017-11-03T00:45:14.863Z,936.46
2017-11-03T00:45:43.214Z,936.45
2017-11-03T00:46:11.361Z,936.47
2017-11-03T00:46:39.522Z,936.42
2017-11-03T00:47:07.713Z,936.38
2017-11-03T00:47:36.157Z,936.45
2017-11-03T00:48:04.689Z,936.43
2017-11-03T00:48:32.739Z,936.4
2017-11-03T00:49:00.805Z,936.4
2017-11-03T00:49:28.961Z,936.45
2017-11-03T00:49:57.005Z,936.43
2017-11-03T00:50:25.229Z,936.4
2017-11-03T00:50:53.185Z,936.41
2017-11-03T00:51:21.435Z,936.46
2017-11-03T00:51:49.595Z,936.48
2017-11-03T00:52:17.695Z,936.44
2017-11-03T00:52:45.895Z,936.48
2017-11-03T00:53:14.237Z,936.53
2017-11-03T00:53:42.203Z,936.49
2017-11-03T00:54:10.170Z,936.5
2017-11-03T00:54:38.241Z,936.49
2017-11-03T00:55:06.550Z,936.5
2017-11-03T00:55:34.619Z,936.46
2017-11-03T00:56:02.777Z,936.47
2017-11-03T00:56:31.071Z,936.47
2017-11-03T00:56:59.260Z,936.49
2017-11-03T00:57:27.867Z,936.48
2017-11-03T00:57:56.202Z,936.44
2017-11-03T00:58:24.831Z,936.44
2017-11-03T00:58:53.534Z,936.46
2017-11-03T00:59:22.104Z,936.41
2017-11-03T00:59:50.623Z,936.42
2017-11-03T01:00:19.124Z,936.47
2017-11-03T01:00:47.399Z,936.45
2017-11-03T01:01:15.702Z,936.46
2017-11-03T01:01:44.062Z,936.46
2017-11-03T01:02:12.104Z,936.47
2017-11-03T01:02:40.088Z,936.49
2017-11-03T01:03:08.080Z,936.43
2017-11-03T01:03:35.967Z,936.47
2017-11-03T01:04:03.986Z,936.47
2017-11-03T01:04:32.142Z,936.45
2017-11-03T01:05:00.224Z,936.45
2017-11-03T01:05:28.459Z,936.44
2017-11-03T01:05:56.531Z,936.42
2017-11-03T01:06:24.365Z,936.46
2017-11-03T01:06:52.342Z,936.42
2017-11-03T01:07:20.319Z,936.44
2017-11-03T01:07:48.448Z,936.43
2017-11-03T01:08:16.631Z,936.43
2017-11-03T01:08:44.685Z,936.44
2017-11-03T01:09:12.733Z,936.41
2017-11-03T01:09:40.923Z,936.44
2017-11-03T01:10:09.106Z,936.44
2017-11-03T01:10:36.961Z,936.41
2017-11-03T01:11:05.116Z,936.39
2017-11-03T01:11:33.163Z,936.34
2017-11-03T01:12:01.235Z,936.35
2017-11-03T01:12:29.196Z,936.35
2017-11-03T01:12:57.116Z,936.43
2017-11-03T01:13:25.290Z,936.4
2017-11-03T01:13:53.271Z,936.42
2017-11-03T01:14:21.424Z,936.36
2017-11-03T01:14:49.476Z,936.42
2017-11-03T01:15:17.395Z,936.39
2017-11-03T01:15:45.453Z,936.42
2017-11-03T01:16:13.616Z,936.4
2017-11-03T01:16:41.675Z,936.4
2017-11-03T01:17:09.731Z,936.37
2017-11-03T01:17:37.774Z,936.39
2017-11-03T01:18:05.858Z,936.33
2017-11-03T01:18:33.931Z,936.34
2017-11-03T01:19:01.883Z,936.37
2017-11-03T01:19:30.058Z,936.3
2017-11-03T01:19:58.113Z,936.32
2017-11-03T01:20:26.149Z,936.28
2017-11-03T01:20:54.290Z,936.28
2017-11-03T01:21:22.230Z,936.27
2017-11-03T01:21:50.369Z,936.29
2017-11-03T01:22:18.388Z,936.25
2017-11-03T01:22:46.471Z,936.25
2017-11-03T01:23:14.420Z,936.27
2017-11-03T01:23:42.387Z,936.28
2017-11-03T01:24:10.467Z,936.3
2017-11-03T01:24:38.525Z,936.24
2017-11-03T01:25:06.360Z,936.26
2017-11-03T01:25:34.437Z,936.27
2017-11-03T01:26:02.483Z,936.28
2017-11-03T01:26:30.520Z,936.29
2017-11-03T01:26:58.697Z,936.27
2017-11-03T01:27:26.747Z,936.25
2017-11-03T01:27:54.885Z,936.3
2017-11-03T01:28:22.928Z,936.25
2017-11-03T01:28:50.925Z,936.25
2017-11-03T01:29:18.904Z,936.27
2017-11-03T01:29:47.085Z,936.22
2017-11-03T01:30:15.245Z,936.23
2017-11-03T01:30:43.402Z,936.2
2017-11-03T01:31:11.555Z,936.19
2017-11-03T01:31:39.701Z,936.17
2017-11-03T01:32:07.752Z,936.2
2017-11-03T01:32:35.701Z,936.23
2017-11-03T01:33:03.675Z,936.22
2017-11-03T01:33:31.835Z,936.25
2017-11-03T01:33:59.784Z,936.23
2017-11-03T01:34:27.736Z,936.25
2017-11-03T01:34:55.801Z,936.26
2017-11-03T01:35:23.855Z,936.26
2017-11-03T01:35:51.989Z,936.25
2017-11-03T01:36:20.045Z,936.23
2017-11-03T01:36:47.965Z,936.25
2017-11-03T01:37:16.018Z,936.23
2017-11-03T01:37:44.039Z,936.22
2017-11-03T01:38:12.076Z,936.22
2017-11-03T01:38:39.929Z,936.21
2017-11-03T01:39:08.067Z,936.21
2017-11-03T01:39:36.188Z,936.17
2017-11-03T01:40:04.253Z,936.15
2017-11-03T01:40:32.323Z,936.21
2017-11-03T01:41:00.370Z,936.17
2017-11-03T01:41:28.400Z,936.15
2017-11-03T01:41:57.098Z,936.15
2017-11-03T01:42:25.269Z,936.14
2017-11-03T01:42:53.401Z,936.15
2017-11-03T01:43:21.527Z,936.15
2017-11-03T01:43:49.691Z,936.11
2017-11-03T01:44:17.837Z,936.14
2017-11-03T01:44:45.870Z,936.14
2017-11-03T01:45:13.823Z,936.15
2017-11-03T01:45:41.966Z,936.1
2017-11-03T01:46:10.124Z,936.05
2017-11-03T01:46:38.142Z,936.1
2017-11-03T01:47:06.289Z,936.07
2017-11-03T01:47:34.174Z,936.05
2017-11-03T01:48:02.220Z,936.09
2017-11-03T01:48:30.360Z,936.08
2017-11-03T01:48:58.376Z,936.05
2017-11-03T01:49:26.576Z,936.06
2017-11-03T01:49:54.708Z,936.06
2017-11-03T01:50:22.683Z,936.06
2017-11-03T01:50:50.751Z,936.1
2017-11-03T01:51:18.871Z,936.08
2017-11-03T01:51:46.882Z,936.11
2017-11-03T01:52:15.038Z,936.05
2017-11-03T01:52:43.107Z,936.06
2017-11-03T01:53:11.054Z,936.04
2017-11-03T01:53:39.104Z,936.11
2017-11-03T01:54:07.245Z,936.12
2017-11-03T01:54:35.302Z,936.06
2017-11-03T01:55:03.261Z,936.08
2017-11-03T01:55:31.189Z,936.07
2017-11-03T01:55:59.126Z,936.08
2017-11-03T01:56:27.247Z,936.08
2017-11-03T01:56:55.354Z,936.08
2017-11-03T01:57:23.544Z,936.07
2017-11-03T01:57:51.636Z,936.07
2017-11-03T01:58:19.678Z,936.08
2017-11-03T01:58:47.641Z,936.08
2017-11-03T01:59:15.702Z,936.04
2017-11-03T01:59:43.637Z,936.05
2017-11-03T02:00:11.723Z,936.06
2017-11-03T02:00:39.758Z,936.03
2017-11-03T02:01:07.728Z,936.03
2017-11-03T02:01:35.664Z,936.05
2017-11-03T02:02:03.699Z,936.02
2017-11-03T02:02:31.758Z,936.04
2017-11-03T02:02:59.783Z,936.04
2017-11-03T02:03:27.852Z,936.04
2017-11-03T02:03:56.038Z,936.05
2017-11-03T02:04:24.141Z,936.01
2017-11-03T02:04:52.304Z,936.01
2017-11-03T02:05:20.346Z,936.04
2017-11-03T02:05:48.494Z,936.03
2017-11-03T02:06:16.567Z,936.01
2017-11-03T02:06:44.620Z,936
2017-11-03T02:07:12.565Z,936
2017-11-03T02:07:40.598Z,936.06
2017-11-03T02:08:08.625Z,936.03
2017-11-03T02:08:36.607Z,936.01
2017-11-03T02:09:04.569Z,936.01
2017-11-03T02:09:32.624Z,935.99
2017-11-03T02:10:00.654Z,936.04
2017-11-03T02:10:28.611Z,936.01
2017-11-03T02:10:56.667Z,936.01
2017-11-03T02:11:24.623Z,935.99
2017-11-03T02:11:52.475Z,935.99
2017-11-03T02:12:20.612Z,935.96
2017-11-03T02:12:48.478Z,935.98
2017-11-03T02:13:16.497Z,935.97
2017-11-03T02:13:44.662Z,935.96
2017-11-03T02:14:12.793Z,935.98
2017-11-03T02:14:40.820Z,935.97
2017-11-03T02:15:08.929Z,936
2017-11-03T02:15:36.983Z,935.94
2017-11-03T02:16:05.082Z,935.97
2017-11-03T02:16:33.223Z,935.96
2017-11-03T02:17:01.282Z,935.99
2017-11-03T02:17:29.415Z,935.98
2017-11-03T02:17:57.473Z,935.99
2017-11-03T02:18:25.329Z,935.92
2017-11-03T02:18:53.492Z,935.94
2017-11-03T02:19:21.541Z,935.93
2017-11-03T02:19:49.588Z,935.92
2017-11-03T02:20:17.823Z,935.91
2017-11-03T02:20:45.858Z,935.94
2017-11-03T02:21:13.984Z,935.94
2017-11-03T02:21:42.152Z,935.92
2017-11-03T02:22:10.190Z,935.95
2017-11-03T02:22:38.014Z,935.93
2017-11-03T02:23:06.249Z,935.88
2017-11-03T02:23:34.360Z,935.92
2017-11-03T02:24:02.451Z,935.96
2017-11-03T02:24:30.313Z,935.9
2017-11-03T02:24:58.476Z,935.93
2017-11-03T02:25:26.540Z,935.91
2017-11-03T02:25:54.398Z,935.93
2017-11-03T02:26:22.252Z,935.91
2017-11-03T02:26:50.292Z,935.87
2017-11-03T02:27:18.469Z,935.9
2017-11-03T02:27:46.499Z,935.91
2017-11-03T02:28:14.536Z,935.91
2017-11-03T02:28:42.602Z,935.92
2017-11-03T02:29:10.736Z,935.9
2017-11-03T02:29:38.681Z,935.92
2017-11-03T02:30:06.817Z,935.9
2017-11-03T02:30:34.937Z,935.87
2017-11-03T02:31:02.984Z,935.89
2017-11-03T02:31:30.993Z,935.9
2017-11-03T02:31:59.039Z,935.92
2017-11-03T02:32:27.063Z,935.96
2017-11-03T02:32:55.223Z,935.93
2017-11-03T02:33:23.247Z,935.92
2017-11-03T02:33:51.375Z,935.95
2017-11-03T02:34:19.200Z,935.91
2017-11-03T02:34:47.242Z,935.95
2017-11-03T02:35:15.067Z,935.91
2017-11-03T02:35:43.103Z,935.92
2017-11-03T02:36:11.057Z,935.92
2017-11-03T02:36:39.111Z,935.93
2017-11-03T02:37:07.255Z,935.9
2017-11-03T02:37:35.411Z,935.88
2017-11-03T02:38:03.378Z,935.86
2017-11-03T02:38:31.325Z,935.86
2017-11-03T02:38:59.277Z,935.87
2017-11-03T02:39:27.436Z,935.86
2017-11-03T02:39:55.520Z,935.84
2017-11-03T02:40:23.564Z,935.85
2017-11-03T02:40:51.605Z,935.84
2017-11-03T02:41:19.744Z,935.85
2017-11-03T02:41:47.697Z,935.84
2017-11-03T02:42:15.878Z,935.83
2017-11-03T02:42:43.800Z,935.84
2017-11-03T02:43:11.929Z,935.83
2017-11-03T02:43:40.075Z,935.86
2017-11-03T02:44:08.246Z,935.8
2017-11-03T02:44:36.431Z,935.88
2017-11-03T02:45:04.595Z,935.86
2017-11-03T02:45:32.648Z,935.82
2017-11-03T02:46:00.594Z,935.82
2017-11-03T02:46:28.629Z,935.9
2017-11-03T02:46:56.601Z,935.83
2017-11-03T02:47:24.624Z,935.86
2017-11-03T02:47:52.785Z,935.83
2017-11-03T02:48:20.928Z,935.85
2017-11-03T02:48:49.103Z,935.9
2017-11-03T02:49:17.252Z,935.87
2017-11-03T02:49:45.215Z,935.86
2017-11-03T02:50:13.287Z,935.87
2017-11-03T02:50:42.248Z,935.84
2017-11-03T02:51:10.315Z,935.9
2017-11-03T02:51:38.262Z,935.85
2017-11-03T02:52:06.303Z,935.84
2017-11-03T02:52:34.250Z,935.84
2017-11-03T02:53:02.305Z,935.85
2017-11-03T02:53:30.355Z,935.83
2017-11-03T02:53:58.312Z,935.87
2017-11-03T02:54:26.386Z,935.84
2017-11-03T02:54:54.211Z,935.83
2017-11-03T02:55:22.278Z,935.89
2017-11-03T02:55:50.313Z,935.87
2017-11-03T02:56:18.352Z,935.87
2017-11-03T02:56:46.194Z,935.83
2017-11-03T02:57:14.352Z,935.81
2017-11-03T02:57:42.516Z,935.84
2017-11-03T02:58:10.880Z,935.81
2017-11-03T02:58:39.405Z,935.83
2017-11-03T02:59:08.103Z,935.82
2017-11-03T02:59:36.366Z,935.81
2017-11-03T03:00:04.513Z,935.76
2017-11-03T03:00:32.447Z,935.79
2017-11-03T03:01:00.603Z,935.82
2017-11-03T03:01:28.731Z,935.78
2017-11-03T03:01:56.724Z,935.78
2017-11-03T03:02:24.855Z,935.79
2017-11-03T03:02:52.871Z,935.82
2017-11-03T03:03:20.896Z,935.8
2017-11-03T03:03:49.050Z,935.79
2017-11-03T03:04:17.087Z,935.82
2017-11-03T03:04:45.105Z,935.77
2017-11-03T03:05:13.267Z,935.82
2017-11-03T03:05:41.128Z,935.79
2017-11-03T03:06:09.294Z,935.81
2017-11-03T03:06:37.320Z,935.87
2017-11-03T03:07:05.292Z,935.83
2017-11-03T03:07:33.442Z,935.85
2017-11-03T03:08:01.491Z,935.88
2017-11-03T03:08:29.537Z,935.89
2017-11-03T03:08:57.483Z,935.88
2017-11-03T03:09:25.514Z,935.91
2017-11-03T03:09:53.444Z,935.9
2017-11-03T03:10:21.574Z,935.89
2017-11-03T03:10:49.725Z,935.89
2017-11-03T03:11:17.576Z,935.88
2017-11-03T03:11:45.709Z,935.88
2017-11-03T03:12:13.597Z,935.88
2017-11-03T03:12:41.612Z,935.89
2017-11-03T03:13:09.652Z,935.89
2017-11-03T03:13:37.701Z,935.85
2017-11-03T03:14:05.757Z,935.87
2017-11-03T03:14:33.797Z,935.88
2017-11-03T03:15:01.872Z,935.88
2017-11-03T03:15:29.993Z,935.84
2017-11-03T03:15:58.216Z,935.86
2017-11-03T03:16:26.388Z,935.86
2017-11-03T03:16:54.326Z,935.84
2017-11-03T03:17:22.284Z,935.85
2017-11-03T03:17:50.139Z,935.87
2017-11-03T03:18:19.075Z,935.86
2017-11-03T03:18:46.925Z,935.86
2017-11-03T03:19:15.070Z,935.85
2017-11-03T03:19:43.126Z,935.86
2017-11-03T03:20:11.068Z,935.88
2017-11-03T03:20:39.222Z,935.88
2017-11-03T03:21:07.078Z,935.87
2017-11-03T03:21:35.036Z,935.86
2017-11-03T03:22:03.175Z,935.86
2017-11-03T03:22:31.124Z,935.81
2017-11-03T03:22:59.192Z,935.81
2017-11-03T03:23:27.127Z,935.76
2017-11-03T03:23:55.352Z,935.77
2017-11-03T03:24:23.470Z,935.79
2017-11-03T03:24:51.543Z,935.76
2017-11-03T03:25:19.668Z,935.75
2017-11-03T03:25:47.733Z,935.73
2017-11-03T03:26:15.805Z,935.75
2017-11-03T03:26:43.832Z,935.72
2017-11-03T03:27:11.889Z,935.75
2017-11-03T03:27:39.923Z,935.75
2017-11-03T03:28:08.099Z,935.75
2017-11-03T03:28:36.142Z,935.79
2017-11-03T03:29:04.286Z,935.81
2017-11-03T03:29:32.125Z,935.84
2017-11-03T03:30:00.279Z,935.79
2017-11-03T03:30:28.348Z,935.79
2017-11-03T03:30:56.421Z,935.77
2017-11-03T03:31:24.572Z,935.81
2017-11-03T03:31:52.634Z,935.8
2017-11-03T03:32:20.739Z,935.77
2017-11-03T03:32:48.684Z,935.77
2017-11-03T03:33:16.809Z,935.78
2017-11-03T03:33:44.850Z,935.82
2017-11-03T03:34:12.893Z,935.75
2017-11-03T03:34:40.877Z,935.74
2017-11-03T03:35:09.428Z,935.72
2017-11-03T03:35:38.019Z,935.73
2017-11-03T03:36:06.527Z,935.77
2017-11-03T03:36:35.027Z,935.77
2017-11-03T03:37:03.728Z,935.75
2017-11-03T03:37:32.113Z,935.77
2017-11-03T03:38:00.627Z,935.75
2017-11-03T03:38:29.021Z,935.75
2017-11-03T03:38:56.998Z,935.75
2017-11-03T03:39:24.926Z,935.71
2017-11-03T03:39:52.847Z,935.75
2017-11-03T03:40:20.985Z,935.76
2017-11-03T03:40:49.108Z,935.74
2017-11-03T03:41:17.143Z,935.75
2017-11-03T03:41:45.113Z,935.75
2017-11-03T03:42:13.142Z,935.8
2017-11-03T03:42:41.128Z,935.76
2017-11-03T03:43:09.429Z,935.8
2017-11-03T03:43:37.664Z,935.8
2017-11-03T03:44:06.065Z,935.79
2017-11-03T03:44:34.311Z,935.78
2017-11-03T03:45:02.482Z,935.82
2017-11-03T03:45:30.422Z,935.81
2017-11-03T03:45:58.364Z,935.82
2017-11-03T03:46:26.396Z,935.83
2017-11-03T03:46:54.343Z,935.78
2017-11-03T03:47:22.305Z,935.76
2017-11-03T03:47:50.454Z,935.81
2017-11-03T03:48:18.429Z,935.81
2017-11-03T03:48:46.570Z,935.8
2017-11-03T03:49:14.524Z,935.83
2017-11-03T03:49:42.575Z,935.77
2017-11-03T03:50:10.634Z,935.78
2017-11-03T03:50:38.683Z,935.77
2017-11-03T03:51:06.878Z,935.8
2017-11-03T03:51:34.840Z,935.75
2017-11-03T03:52:02.788Z,935.76
2017-11-03T03:52:30.979Z,935.75
2017-11-03T03:52:59.535Z,935.71
2017-11-03T03:53:27.982Z,935.71
2017-11-03T03:53:55.919Z,935.69
2017-11-03T03:54:23.853Z,935.69
2017-11-03T03:54:51.941Z,935.72
2017-11-03T03:55:19.902Z,935.7
2017-11-03T03:55:48.106Z,935.68
2017-11-03T03:56:16.235Z,935.67
2017-11-03T03:56:44.421Z,935.72
2017-11-03T03:57:12.398Z,935.71
2017-11-03T03:57:40.437Z,935.7
2017-11-03T03:58:08.489Z,935.7
2017-11-03T03:58:36.460Z,935.64
2017-11-03T03:59:04.571Z,935.7
2017-11-03T03:59:32.807Z,935.67
2017-11-03T04:00:00.975Z,935.69
2017-11-03T04:00:28.920Z,935.66
2017-11-03T04:00:57.047Z,935.7
2017-11-03T04:01:25.138Z,935.69
2017-11-03T04:01:53.201Z,935.66
2017-11-03T04:02:21.136Z,935.7
2017-11-03T04:02:49.280Z,935.69
2017-11-03T04:03:17.460Z,935.68
2017-11-03T04:03:45.412Z,935.71
2017-11-03T04:04:13.352Z,935.73
2017-11-03T04:04:41.508Z,935.72
2017-11-03T04:05:09.561Z,935.73
2017-11-03T04:05:38.008Z,935.71
2017-11-03T04:06:06.018Z,935.69
2017-11-03T04:06:34.118Z,935.68
2017-11-03T04:07:01.942Z,935.67
2017-11-03T04:07:29.873Z,935.72
2017-11-03T04:07:58.065Z,935.68
2017-11-03T04:08:26.130Z,935.67
2017-11-03T04:08:54.088Z,935.71
2017-11-03T04:09:21.928Z,935.67
2017-11-03T04:09:50.073Z,935.67
2017-11-03T04:10:18.102Z,935.65
2017-11-03T04:10:46.066Z,935.63
2017-11-03T04:11:14.123Z,935.61
2017-11-03T04:11:42.261Z,935.65
2017-11-03T04:12:10.390Z,935.64
2017-11-03T04:12:38.438Z,935.63
2017-11-03T04:13:06.596Z,935.65
2017-11-03T04:13:34.643Z,935.65
2017-11-03T04:14:02.794Z,935.66
2017-11-03T04:14:30.951Z,935.67
2017-11-03T04:14:59.039Z,935.65
2017-11-03T04:15:27.086Z,935.67
2017-11-03T04:15:55.213Z,935.65
2017-11-03T04:16:23.386Z,935.67
2017-11-03T04:16:51.347Z,935.65
2017-11-03T04:17:19.417Z,935.66
2017-11-03T04:17:47.575Z,935.63
2017-11-03T04:18:15.422Z,935.68
2017-11-03T04:18:43.463Z,935.66
2017-11-03T04:19:11.335Z,935.67
2017-11-03T04:19:39.402Z,935.69
2017-11-03T04:20:07.443Z,935.68
2017-11-03T04:20:35.594Z,935.64
2017-11-03T04:21:03.553Z,935.64
2017-11-03T04:21:31.769Z,935.63
2017-11-03T04:21:59.971Z,935.65
2017-11-03T04:22:28.135Z,935.65
2017-11-03T04:22:56.285Z,935.6
2017-11-03T04:23:24.377Z,935.59
2017-11-03T04:23:52.333Z,935.54
2017-11-03T04:24:20.469Z,935.59
2017-11-03T04:24:48.482Z,935.56
2017-11-03T04:25:16.715Z,935.57
2017-11-03T04:25:44.796Z,935.56
2017-11-03T04:26:12.861Z,935.57
2017-11-03T04:26:41.016Z,935.55
2017-11-03T04:27:09.056Z,935.54
2017-11-03T04:27:37.111Z,935.54
2017-11-03T04:28:05.188Z,935.51
2017-11-03T04:28:33.157Z,935.49
2017-11-03T04:29:01.302Z,935.52
2017-11-03T04:29:29.433Z,935.46
2017-11-03T04:29:57.648Z,935.49
2017-11-03T04:30:25.740Z,935.48
2017-11-03T04:30:53.848Z,935.49
2017-11-03T04:31:22.008Z,935.52
2017-11-03T04:31:50.138Z,935.51
2017-11-03T04:32:18.327Z,935.52
2017-11-03T04:32:46.533Z,935.5
2017-11-03T04:33:14.654Z,935.49
2017-11-03T04:33:42.617Z,935.46
2017-11-03T04:34:10.668Z,935.48
2017-11-03T04:34:38.648Z,935.43
2017-11-03T04:35:06.818Z,935.43
2017-11-03T04:35:34.983Z,935.44
2017-11-03T04:36:03.118Z,935.43
2017-11-03T04:36:31.269Z,935.38
2017-11-03T04:36:59.230Z,935.39
2017-11-03T04:37:27.286Z,935.41
2017-11-03T04:37:55.115Z,935.43
2017-11-03T04:38:23.260Z,935.4
2017-11-03T04:38:51.414Z,935.39
2017-11-03T04:39:19.987Z,935.4
2017-11-03T04:39:48.401Z,935.38
2017-11-03T04:40:16.838Z,935.37
2017-11-03T04:40:44.887Z,935.35
2017-11-03T04:41:12.959Z,935.35
2017-11-03T04:41:41.119Z,935.34
2017-11-03T04:42:09.075Z,935.36
2017-11-03T04:42:37.056Z,935.32
2017-11-03T04:43:05.082Z,935.34
2017-11-03T04:43:33.238Z,935.38
2017-11-03T04:44:01.196Z,935.36
2017-11-03T04:44:29.163Z,935.4
2017-11-03T04:44:57.026Z,935.39
2017-11-03T04:45:25.056Z,935.38
2017-11-03T04:45:53.196Z,935.4
2017-11-03T04:46:21.500Z,935.39
2017-11-03T04:46:49.584Z,935.38
2017-11-03T04:47:17.637Z,935.37
2017-11-03T04:47:45.817Z,935.37
2017-11-03T04:48:13.766Z,935.37
2017-11-03T04:48:41.823Z,935.41
2017-11-03T04:49:09.761Z,935.37
2017-11-03T04:49:37.811Z,935.39
2017-11-03T04:50:05.775Z,935.37
2017-11-03T04:50:33.939Z,935.37
2017-11-03T04:51:01.865Z,935.36
2017-11-03T04:51:29.808Z,935.32
2017-11-03T04:51:57.860Z,935.35
2017-11-03T04:52:25.901Z,935.34
2017-11-03T04:52:53.973Z,935.31
2017-11-03T04:53:22.022Z,935.31
2017-11-03T04:53:50.063Z,935.33
2017-11-03T04:54:18.071Z,935.32
2017-11-03T04:54:46.037Z,935.28
2017-11-03T04:55:14.088Z,935.3
2017-11-03T04:55:42.005Z,935.26
2017-11-03T04:56:10.470Z,935.29
2017-11-03T04:56:38.659Z,935.32
2017-11-03T04:57:06.897Z,935.29
2017-11-03T04:57:35.386Z,935.32
2017-11-03T04:58:03.571Z,935.3
2017-11-03T04:58:31.946Z,935.32
2017-11-03T04:59:00.607Z,935.34
2017-11-03T04:59:28.552Z,935.31
2017-11-03T04:59:56.614Z,935.34
2017-11-03T05:00:24.721Z,935.35
2017-11-03T05:00:52.737Z,935.35
2017-11-03T05:01:20.911Z,935.37
2017-11-03T05:01:48.876Z,935.39
2017-11-03T05:02:16.821Z,935.4
2017-11-03T05:02:44.873Z,935.37
2017-11-03T05:03:12.828Z,935.4
2017-11-03T05:03:40.860Z,935.4
2017-11-03T05:04:08.806Z,935.43
2017-11-03T05:04:36.888Z,935.45
2017-11-03T05:05:04.930Z,935.4
2017-11-03T05:05:33.067Z,935.4
2017-11-03T05:06:01.194Z,935.38
2017-11-03T05:06:29.214Z,935.37
2017-11-03T05:06:57.265Z,935.4
2017-11-03T05:07:25.315Z,935.37
2017-11-03T05:07:53.163Z,935.41
2017-11-03T05:08:21.298Z,935.34
2017-11-03T05:08:49.432Z,935.39
2017-11-03T05:09:17.560Z,935.36
2017-11-03T05:09:45.513Z,935.38
2017-11-03T05:10:13.561Z,935.36
2017-11-03T05:10:41.632Z,935.35
2017-11-03T05:11:09.790Z,935.36
2017-11-03T05:11:37.934Z,935.38
2017-11-03T05:12:05.891Z,935.32
2017-11-03T05:12:34.063Z,935.35
2017-11-03T05:13:02.124Z,935.36
2017-11-03T05:13:30.069Z,935.32
2017-11-03T05:13:58.006Z,935.31
2017-11-03T05:14:26.159Z,935.34
2017-11-03T05:14:54.221Z,935.34
2017-11-03T05:15:22.373Z,935.31
2017-11-03T05:15:50.526Z,935.31
2017-11-03T05:16:18.681Z,935.28
2017-11-03T05:16:46.600Z,935.32
2017-11-03T05:17:14.627Z,935.29
2017-11-03T05:17:42.795Z,935.3
2017-11-03T05:18:10.861Z,935.28
2017-11-03T05:18:38.970Z,935.3
2017-11-03T05:19:06.863Z,935.31
2017-11-03T05:19:34.781Z,935.32
2017-11-03T05:20:02.635Z,935.32
2017-11-03T05:20:30.788Z,935.32
2017-11-03T05:20:58.837Z,935.33
2017-11-03T05:21:26.901Z,935.32
2017-11-03T05:21:55.038Z,935.33
2017-11-03T05:22:23.100Z,935.33
2017-11-03T05:22:51.074Z,935.35
2017-11-03T05:23:19.214Z,935.36
2017-11-03T05:23:47.372Z,935.33
2017-11-03T05:24:15.419Z,935.33
2017-11-03T05:24:43.431Z,935.32
2017-11-03T05:25:11.581Z,935.3
2017-11-03T05:25:39.629Z,935.27
2017-11-03T05:26:07.639Z,935.29
2017-11-03T05:26:35.630Z,935.3
2017-11-03T05:27:03.574Z,935.27
2017-11-03T05:27:31.610Z,935.27
2017-11-03T05:27:59.767Z,935.29
2017-11-03T05:28:27.807Z,935.29
2017-11-03T05:28:55.836Z,935.27
2017-11-03T05:29:23.714Z,935.31
2017-11-03T05:29:51.837Z,935.32
2017-11-03T05:30:19.984Z,935.33
2017-11-03T05:30:48.149Z,935.33
2017-11-03T05:31:15.996Z,935.32
2017-11-03T05:31:44.122Z,935.34
2017-11-03T05:32:12.261Z,935.35
2017-11-03T05:32:40.297Z,935.38
2017-11-03T05:33:08.331Z,935.36
2017-11-03T05:33:36.398Z,935.43
2017-11-03T05:34:04.343Z,935.39
2017-11-03T05:34:32.489Z,935.36
2017-11-03T05:35:00.650Z,935.36
2017-11-03T05:35:28.498Z,935.34
2017-11-03T05:35:56.615Z,935.33
2017-11-03T05:36:24.680Z,935.35
2017-11-03T05:36:52.746Z,935.3
2017-11-03T05:37:20.785Z,935.29
2017-11-03T05:37:48.713Z,935.28
2017-11-03T05:38:16.861Z,935.27
2017-11-03T05:38:45.026Z,935.25
2017-11-03T05:39:13.075Z,935.3
2017-11-03T05:39:41.120Z,935.31
2017-11-03T05:40:09.089Z,935.28
2017-11-03T05:40:37.130Z,935.27
2017-11-03T05:41:05.261Z,935.26
2017-11-03T05:41:33.425Z,935.31
2017-11-03T05:42:01.327Z,935.31
2017-11-03T05:42:29.376Z,935.31
2017-11-03T05:42:57.414Z,935.3
2017-11-03T05:43:25.456Z,935.3
2017-11-03T05:43:53.405Z,935.3
2017-11-03T05:44:21.424Z,935.29
2017-11-03T05:44:49.461Z,935.27
2017-11-03T05:45:17.367Z,935.3
2017-11-03T05:45:45.489Z,935.28
2017-11-03T05:46:13.554Z,935.28
2017-11-03T05:46:41.742Z,935.28
2017-11-03T05:47:09.937Z,935.25
2017-11-03T05:47:37.983Z,935.26
2017-11-03T05:48:05.920Z,935.23
2017-11-03T05:48:33.970Z,935.22
2017-11-03T05:49:02.051Z,935.23
2017-11-03T05:49:30.075Z,935.18
2017-11-03T05:49:58.211Z,935.15
2017-11-03T05:50:26.346Z,935.16
2017-11-03T05:50:54.440Z,935.12
2017-11-03T05:51:22.577Z,935.11
2017-11-03T05:51:50.598Z,935.13